sensor_id;sensor_type;location;lat;lon;timestamp;P1;durP1;ratioP1;P2;durP2;ratioP2
57969;SDS011;43777;42.656;23.264;2022-07-29T00:00:39;9.95;;;9.10;;
57969;SDS011;43777;42.656;23.264;2022-07-29T00:03:05;11.88;;;9.48;;
57969;SDS011;43777;42.656;23.264;2022-07-29T00:05:31;11.15;;;9.57;;
57969;SDS011;43777;42.656;23.264;2022-07-29T00:07:57;10.52;;;9.52;;
57969;SDS011;43777;42.656;23.264;2022-07-29T00:10:23;11.40;;;10.18;;
57969;SDS011;43777;42.656;23.264;2022-07-29T00:12:49;10.45;;;9.45;;
57969;SDS011;43777;42.656;23.264;2022-07-29T00:15:15;10.50;;;9.27;;
57969;SDS011;43777;42.656;23.264;2022-07-29T00:17:41;10.32;;;9.32;;
57969;SDS011;43777;42.656;23.264;2022-07-29T00:20:08;10.82;;;9.35;;
57969;SDS011;43777;42.656;23.264;2022-07-29T00:22:36;10.00;;;9.00;;
57969;SDS011;43777;42.656;23.264;2022-07-29T00:25:02;10.68;;;9.63;;
57969;SDS011;43777;42.656;23.264;2022-07-29T00:27:28;10.23;;;9.23;;
57969;SDS011;43777;42.656;23.264;2022-07-29T00:29:54;11.07;;;10.00;;
57969;SDS011;43777;42.656;23.264;2022-07-29T00:32:21;10.95;;;9.55;;
57969;SDS011;43777;42.656;23.264;2022-07-29T00:34:47;10.52;;;9.40;;
57969;SDS011;43777;42.656;23.264;2022-07-29T00:37:31;10.02;;;9.05;;
57969;SDS011;43777;42.656;23.264;2022-07-29T00:39:57;10.35;;;9.25;;
57969;SDS011;43777;42.656;23.264;2022-07-29T00:42:23;10.48;;;9.32;;
57969;SDS011;43777;42.656;23.264;2022-07-29T00:44:49;10.02;;;9.10;;
57969;SDS011;43777;42.656;23.264;2022-07-29T00:47:16;10.23;;;9.30;;
57969;SDS011;43777;42.656;23.264;2022-07-29T00:49:42;10.63;;;9.63;;
57969;SDS011;43777;42.656;23.264;2022-07-29T00:52:09;11.23;;;9.85;;
57969;SDS011;43777;42.656;23.264;2022-07-29T00:54:36;10.30;;;9.40;;
57969;SDS011;43777;42.656;23.264;2022-07-29T00:57:03;11.40;;;10.25;;
57969;SDS011;43777;42.656;23.264;2022-07-29T00:59:29;10.65;;;9.60;;
57969;SDS011;43777;42.656;23.264;2022-07-29T01:01:55;13.55;;;10.15;;
57969;SDS011;43777;42.656;23.264;2022-07-29T01:04:21;11.45;;;10.35;;
57969;SDS011;43777;42.656;23.264;2022-07-29T01:06:48;12.15;;;10.55;;
57969;SDS011;43777;42.656;23.264;2022-07-29T01:09:15;11.65;;;10.57;;
57969;SDS011;43777;42.656;23.264;2022-07-29T01:11:41;11.27;;;10.18;;
57969;SDS011;43777;42.656;23.264;2022-07-29T01:14:08;11.82;;;10.63;;
57969;SDS011;43777;42.656;23.264;2022-07-29T01:16:37;11.90;;;10.70;;
57969;SDS011;43777;42.656;23.264;2022-07-29T01:21:53;13.63;;;10.35;;
57969;SDS011;43777;42.656;23.264;2022-07-29T01:24:34;11.05;;;9.95;;
57969;SDS011;43777;42.656;23.264;2022-07-29T01:29:55;12.27;;;10.07;;
57969;SDS011;43777;42.656;23.264;2022-07-29T01:32:24;12.70;;;11.05;;
57969;SDS011;43777;42.656;23.264;2022-07-29T01:40:03;14.70;;;10.60;;
57969;SDS011;43777;42.656;23.264;2022-07-29T01:42:38;12.52;;;11.27;;
57969;SDS011;43777;42.656;23.264;2022-07-29T01:45:15;12.18;;;10.95;;
57969;SDS011;43777;42.656;23.264;2022-07-29T01:50:17;13.80;;;11.70;;
57969;SDS011;43777;42.656;23.264;2022-07-29T01:52:55;12.90;;;11.60;;
57969;SDS011;43777;42.656;23.264;2022-07-29T01:55:22;13.63;;;12.32;;
57969;SDS011;43777;42.656;23.264;2022-07-29T01:57:50;13.45;;;11.30;;
57969;SDS011;43777;42.656;23.264;2022-07-29T02:00:17;15.13;;;12.63;;
57969;SDS011;43777;42.656;23.264;2022-07-29T02:02:44;14.85;;;12.57;;
57969;SDS011;43777;42.656;23.264;2022-07-29T02:05:12;13.00;;;11.63;;
57969;SDS011;43777;42.656;23.264;2022-07-29T02:07:40;12.70;;;11.32;;
57969;SDS011;43777;42.656;23.264;2022-07-29T02:10:07;13.57;;;11.95;;
57969;SDS011;43777;42.656;23.264;2022-07-29T02:12:35;12.98;;;11.68;;
57969;SDS011;43777;42.656;23.264;2022-07-29T02:15:02;13.30;;;12.00;;
57969;SDS011;43777;42.656;23.264;2022-07-29T02:17:31;13.05;;;11.85;;
57969;SDS011;43777;42.656;23.264;2022-07-29T02:19:59;12.63;;;11.43;;
57969;SDS011;43777;42.656;23.264;2022-07-29T02:22:26;13.35;;;12.00;;
57969;SDS011;43777;42.656;23.264;2022-07-29T02:24:54;12.65;;;11.43;;
57969;SDS011;43777;42.656;23.264;2022-07-29T02:27:21;12.80;;;11.55;;
57969;SDS011;43777;42.656;23.264;2022-07-29T02:29:48;13.50;;;12.10;;
57969;SDS011;43777;42.656;23.264;2022-07-29T02:32:14;12.80;;;11.55;;
57969;SDS011;43777;42.656;23.264;2022-07-29T02:34:42;13.40;;;12.10;;
57969;SDS011;43777;42.656;23.264;2022-07-29T02:37:09;13.27;;;11.90;;
57969;SDS011;43777;42.656;23.264;2022-07-29T02:39:35;13.48;;;12.18;;
57969;SDS011;43777;42.656;23.264;2022-07-29T02:42:07;13.30;;;11.90;;
57969;SDS011;43777;42.656;23.264;2022-07-29T02:44:33;14.13;;;12.77;;
57969;SDS011;43777;42.656;23.264;2022-07-29T02:52:00;13.40;;;12.00;;
57969;SDS011;43777;42.656;23.264;2022-07-29T02:56:57;13.57;;;12.20;;
57969;SDS011;43777;42.656;23.264;2022-07-29T02:59:24;14.30;;;12.77;;
57969;SDS011;43777;42.656;23.264;2022-07-29T03:01:52;13.93;;;12.57;;
57969;SDS011;43777;42.656;23.264;2022-07-29T03:04:19;14.48;;;12.70;;
57969;SDS011;43777;42.656;23.264;2022-07-29T03:06:46;15.43;;;13.30;;
57969;SDS011;43777;42.656;23.264;2022-07-29T03:09:12;14.25;;;12.88;;
57969;SDS011;43777;42.656;23.264;2022-07-29T03:11:39;13.80;;;12.50;;
57969;SDS011;43777;42.656;23.264;2022-07-29T03:14:06;14.70;;;13.20;;
57969;SDS011;43777;42.656;23.264;2022-07-29T03:16:33;15.07;;;12.88;;
57969;SDS011;43777;42.656;23.264;2022-07-29T03:19:01;14.30;;;12.45;;
57969;SDS011;43777;42.656;23.264;2022-07-29T03:21:27;15.70;;;14.20;;
57969;SDS011;43777;42.656;23.264;2022-07-29T03:23:53;15.77;;;13.40;;
57969;SDS011;43777;42.656;23.264;2022-07-29T03:26:19;15.52;;;13.02;;
57969;SDS011;43777;42.656;23.264;2022-07-29T03:28:45;15.43;;;13.73;;
57969;SDS011;43777;42.656;23.264;2022-07-29T03:31:12;15.13;;;13.63;;
57969;SDS011;43777;42.656;23.264;2022-07-29T03:33:38;17.08;;;14.98;;
57969;SDS011;43777;42.656;23.264;2022-07-29T03:36:04;17.17;;;15.15;;
57969;SDS011;43777;42.656;23.264;2022-07-29T03:38:30;18.85;;;15.40;;
57969;SDS011;43777;42.656;23.264;2022-07-29T03:40:59;20.27;;;15.77;;
57969;SDS011;43777;42.656;23.264;2022-07-29T03:43:26;19.10;;;15.45;;
57969;SDS011;43777;42.656;23.264;2022-07-29T03:45:56;17.23;;;15.52;;
57969;SDS011;43777;42.656;23.264;2022-07-29T03:48:23;16.90;;;15.20;;
57969;SDS011;43777;42.656;23.264;2022-07-29T03:50:51;16.02;;;14.43;;
57969;SDS011;43777;42.656;23.264;2022-07-29T03:53:17;16.73;;;15.05;;
57969;SDS011;43777;42.656;23.264;2022-07-29T03:55:44;16.95;;;15.15;;
57969;SDS011;43777;42.656;23.264;2022-07-29T03:58:14;17.33;;;15.52;;
57969;SDS011;43777;42.656;23.264;2022-07-29T04:00:41;16.70;;;15.00;;
57969;SDS011;43777;42.656;23.264;2022-07-29T04:03:08;18.00;;;16.23;;
57969;SDS011;43777;42.656;23.264;2022-07-29T04:05:34;17.98;;;16.15;;
57969;SDS011;43777;42.656;23.264;2022-07-29T04:08:00;16.92;;;15.13;;
57969;SDS011;43777;42.656;23.264;2022-07-29T04:10:26;23.52;;;15.20;;
57969;SDS011;43777;42.656;23.264;2022-07-29T04:12:52;18.67;;;15.10;;
57969;SDS011;43777;42.656;23.264;2022-07-29T04:15:19;17.27;;;15.48;;
57969;SDS011;43777;42.656;23.264;2022-07-29T04:17:45;17.17;;;15.48;;
57969;SDS011;43777;42.656;23.264;2022-07-29T04:20:11;17.38;;;15.77;;
57969;SDS011;43777;42.656;23.264;2022-07-29T04:22:38;17.45;;;15.50;;
57969;SDS011;43777;42.656;23.264;2022-07-29T04:25:05;16.05;;;14.45;;
57969;SDS011;43777;42.656;23.264;2022-07-29T04:27:31;18.23;;;16.33;;
57969;SDS011;43777;42.656;23.264;2022-07-29T04:29:57;17.83;;;16.08;;
57969;SDS011;43777;42.656;23.264;2022-07-29T04:32:23;19.50;;;16.48;;
57969;SDS011;43777;42.656;23.264;2022-07-29T04:34:49;20.08;;;16.80;;
57969;SDS011;43777;42.656;23.264;2022-07-29T04:37:16;19.02;;;17.05;;
57969;SDS011;43777;42.656;23.264;2022-07-29T04:39:42;20.90;;;17.70;;
57969;SDS011;43777;42.656;23.264;2022-07-29T04:42:08;20.35;;;17.15;;
57969;SDS011;43777;42.656;23.264;2022-07-29T04:44:34;18.55;;;16.45;;
57969;SDS011;43777;42.656;23.264;2022-07-29T04:47:00;20.05;;;16.00;;
57969;SDS011;43777;42.656;23.264;2022-07-29T04:49:26;17.83;;;15.07;;
57969;SDS011;43777;42.656;23.264;2022-07-29T04:51:52;18.38;;;15.13;;
57969;SDS011;43777;42.656;23.264;2022-07-29T04:54:18;17.08;;;15.38;;
57969;SDS011;43777;42.656;23.264;2022-07-29T04:56:44;18.13;;;15.93;;
57969;SDS011;43777;42.656;23.264;2022-07-29T04:59:11;20.75;;;15.98;;
57969;SDS011;43777;42.656;23.264;2022-07-29T05:01:37;21.35;;;16.67;;
57969;SDS011;43777;42.656;23.264;2022-07-29T05:04:03;19.73;;;16.38;;
57969;SDS011;43777;42.656;23.264;2022-07-29T05:06:29;18.42;;;16.48;;
57969;SDS011;43777;42.656;23.264;2022-07-29T05:08:55;20.77;;;17.80;;
57969;SDS011;43777;42.656;23.264;2022-07-29T05:11:21;24.08;;;16.95;;
57969;SDS011;43777;42.656;23.264;2022-07-29T05:13:47;19.17;;;17.10;;
57969;SDS011;43777;42.656;23.264;2022-07-29T05:16:14;19.70;;;16.38;;
57969;SDS011;43777;42.656;23.264;2022-07-29T05:18:40;17.33;;;15.57;;
57969;SDS011;43777;42.656;23.264;2022-07-29T05:21:07;17.60;;;15.80;;
57969;SDS011;43777;42.656;23.264;2022-07-29T05:23:33;18.30;;;15.38;;
57969;SDS011;43777;42.656;23.264;2022-07-29T05:25:59;23.25;;;15.88;;
57969;SDS011;43777;42.656;23.264;2022-07-29T05:28:25;16.88;;;15.13;;
57969;SDS011;43777;42.656;23.264;2022-07-29T05:30:51;19.30;;;16.48;;
57969;SDS011;43777;42.656;23.264;2022-07-29T05:33:17;18.40;;;16.38;;
57969;SDS011;43777;42.656;23.264;2022-07-29T05:35:43;21.00;;;15.32;;
57969;SDS011;43777;42.656;23.264;2022-07-29T05:38:09;19.63;;;15.48;;
57969;SDS011;43777;42.656;23.264;2022-07-29T05:40:35;18.80;;;14.77;;
57969;SDS011;43777;42.656;23.264;2022-07-29T05:43:01;15.93;;;14.23;;
57969;SDS011;43777;42.656;23.264;2022-07-29T05:45:27;17.08;;;14.60;;
57969;SDS011;43777;42.656;23.264;2022-07-29T05:47:53;19.33;;;12.68;;
57969;SDS011;43777;42.656;23.264;2022-07-29T05:50:19;12.98;;;10.95;;
57969;SDS011;43777;42.656;23.264;2022-07-29T05:52:45;14.43;;;10.60;;
57969;SDS011;43777;42.656;23.264;2022-07-29T05:55:11;13.70;;;9.63;;
57969;SDS011;43777;42.656;23.264;2022-07-29T05:57:37;12.88;;;9.93;;
57969;SDS011;43777;42.656;23.264;2022-07-29T06:00:04;10.32;;;9.32;;
57969;SDS011;43777;42.656;23.264;2022-07-29T06:02:30;9.85;;;8.88;;
57969;SDS011;43777;42.656;23.264;2022-07-29T06:04:56;10.25;;;9.05;;
57969;SDS011;43777;42.656;23.264;2022-07-29T06:07:22;11.30;;;9.27;;
57969;SDS011;43777;42.656;23.264;2022-07-29T06:09:48;12.70;;;9.68;;
57969;SDS011;43777;42.656;23.264;2022-07-29T06:12:14;14.63;;;9.60;;
57969;SDS011;43777;42.656;23.264;2022-07-29T06:14:40;15.70;;;9.38;;
57969;SDS011;43777;42.656;23.264;2022-07-29T06:17:07;13.05;;;9.48;;
57969;SDS011;43777;42.656;23.264;2022-07-29T06:19:36;10.38;;;9.20;;
57969;SDS011;43777;42.656;23.264;2022-07-29T06:22:02;10.63;;;8.73;;
57969;SDS011;43777;42.656;23.264;2022-07-29T06:24:28;11.25;;;8.88;;
57969;SDS011;43777;42.656;23.264;2022-07-29T06:26:54;12.38;;;9.07;;
57969;SDS011;43777;42.656;23.264;2022-07-29T06:29:20;10.02;;;8.40;;
57969;SDS011;43777;42.656;23.264;2022-07-29T06:31:46;17.88;;;9.18;;
57969;SDS011;43777;42.656;23.264;2022-07-29T06:34:13;13.25;;;8.65;;
57969;SDS011;43777;42.656;23.264;2022-07-29T06:36:39;10.15;;;8.85;;
57969;SDS011;43777;42.656;23.264;2022-07-29T06:39:06;10.95;;;8.98;;
57969;SDS011;43777;42.656;23.264;2022-07-29T06:41:32;12.20;;;8.77;;
57969;SDS011;43777;42.656;23.264;2022-07-29T06:43:58;10.80;;;9.70;;
57969;SDS011;43777;42.656;23.264;2022-07-29T06:46:24;11.88;;;9.43;;
57969;SDS011;43777;42.656;23.264;2022-07-29T06:48:51;11.30;;;9.05;;
57969;SDS011;43777;42.656;23.264;2022-07-29T06:51:17;14.60;;;9.40;;
57969;SDS011;43777;42.656;23.264;2022-07-29T06:53:43;11.88;;;10.27;;
57969;SDS011;43777;42.656;23.264;2022-07-29T06:56:09;10.10;;;9.10;;
57969;SDS011;43777;42.656;23.264;2022-07-29T06:58:38;14.95;;;8.82;;
57969;SDS011;43777;42.656;23.264;2022-07-29T07:01:04;11.52;;;8.90;;
57969;SDS011;43777;42.656;23.264;2022-07-29T07:03:31;9.55;;;8.60;;
57969;SDS011;43777;42.656;23.264;2022-07-29T07:05:57;10.07;;;8.18;;
57969;SDS011;43777;42.656;23.264;2022-07-29T07:08:23;9.13;;;8.23;;
57969;SDS011;43777;42.656;23.264;2022-07-29T07:10:50;14.77;;;8.90;;
57969;SDS011;43777;42.656;23.264;2022-07-29T07:13:16;12.57;;;8.80;;
57969;SDS011;43777;42.656;23.264;2022-07-29T07:15:43;10.82;;;8.63;;
57969;SDS011;43777;42.656;23.264;2022-07-29T07:18:09;9.30;;;8.23;;
57969;SDS011;43777;42.656;23.264;2022-07-29T07:20:35;12.02;;;9.20;;
57969;SDS011;43777;42.656;23.264;2022-07-29T07:23:02;15.68;;;9.10;;
57969;SDS011;43777;42.656;23.264;2022-07-29T07:25:28;9.80;;;8.75;;
57969;SDS011;43777;42.656;23.264;2022-07-29T07:27:54;10.38;;;8.82;;
57969;SDS011;43777;42.656;23.264;2022-07-29T07:30:20;12.45;;;8.73;;
57969;SDS011;43777;42.656;23.264;2022-07-29T07:32:46;9.45;;;8.52;;
57969;SDS011;43777;42.656;23.264;2022-07-29T07:35:12;10.38;;;8.77;;
57969;SDS011;43777;42.656;23.264;2022-07-29T07:37:39;10.98;;;8.80;;
57969;SDS011;43777;42.656;23.264;2022-07-29T07:40:09;10.55;;;9.45;;
57969;SDS011;43777;42.656;23.264;2022-07-29T07:42:36;9.90;;;8.88;;
57969;SDS011;43777;42.656;23.264;2022-07-29T07:45:03;8.77;;;7.97;;
57969;SDS011;43777;42.656;23.264;2022-07-29T07:47:31;15.73;;;8.77;;
57969;SDS011;43777;42.656;23.264;2022-07-29T07:49:57;9.15;;;8.20;;
57969;SDS011;43777;42.656;23.264;2022-07-29T07:52:23;9.75;;;8.70;;
57969;SDS011;43777;42.656;23.264;2022-07-29T07:54:49;10.30;;;7.90;;
57969;SDS011;43777;42.656;23.264;2022-07-29T07:57:16;10.73;;;7.82;;
57969;SDS011;43777;42.656;23.264;2022-07-29T07:59:42;8.88;;;7.80;;
57969;SDS011;43777;42.656;23.264;2022-07-29T08:02:08;12.50;;;8.50;;
57969;SDS011;43777;42.656;23.264;2022-07-29T08:04:35;10.48;;;8.68;;
57969;SDS011;43777;42.656;23.264;2022-07-29T08:07:01;10.07;;;8.27;;
57969;SDS011;43777;42.656;23.264;2022-07-29T08:09:29;9.25;;;7.93;;
57969;SDS011;43777;42.656;23.264;2022-07-29T08:11:56;9.77;;;7.97;;
57969;SDS011;43777;42.656;23.264;2022-07-29T08:14:23;8.40;;;7.60;;
57969;SDS011;43777;42.656;23.264;2022-07-29T08:16:50;7.90;;;7.20;;
57969;SDS011;43777;42.656;23.264;2022-07-29T08:19:16;8.18;;;7.35;;
57969;SDS011;43777;42.656;23.264;2022-07-29T08:21:42;8.15;;;6.85;;
57969;SDS011;43777;42.656;23.264;2022-07-29T08:24:08;10.02;;;6.97;;
57969;SDS011;43777;42.656;23.264;2022-07-29T08:26:53;10.50;;;7.20;;
57969;SDS011;43777;42.656;23.264;2022-07-29T08:29:19;8.95;;;7.60;;
57969;SDS011;43777;42.656;23.264;2022-07-29T08:31:45;9.75;;;6.82;;
57969;SDS011;43777;42.656;23.264;2022-07-29T08:34:11;7.68;;;6.97;;
57969;SDS011;43777;42.656;23.264;2022-07-29T08:36:38;8.88;;;7.55;;
57969;SDS011;43777;42.656;23.264;2022-07-29T08:39:04;7.40;;;6.70;;
57969;SDS011;43777;42.656;23.264;2022-07-29T08:41:30;7.30;;;6.60;;
57969;SDS011;43777;42.656;23.264;2022-07-29T08:43:56;7.95;;;6.68;;
57969;SDS011;43777;42.656;23.264;2022-07-29T08:46:22;7.45;;;6.65;;
57969;SDS011;43777;42.656;23.264;2022-07-29T08:48:49;7.70;;;6.95;;
57969;SDS011;43777;42.656;23.264;2022-07-29T08:51:16;20.20;;;7.05;;
57969;SDS011;43777;42.656;23.264;2022-07-29T08:53:44;7.13;;;6.45;;
57969;SDS011;43777;42.656;23.264;2022-07-29T08:56:14;8.02;;;6.72;;
57969;SDS011;43777;42.656;23.264;2022-07-29T08:58:44;7.53;;;6.72;;
57969;SDS011;43777;42.656;23.264;2022-07-29T09:01:10;7.57;;;6.82;;
57969;SDS011;43777;42.656;23.264;2022-07-29T09:03:37;8.75;;;6.63;;
57969;SDS011;43777;42.656;23.264;2022-07-29T09:06:05;7.40;;;6.80;;
57969;SDS011;43777;42.656;23.264;2022-07-29T09:08:31;7.53;;;6.18;;
57969;SDS011;43777;42.656;23.264;2022-07-29T09:10:58;8.20;;;6.45;;
57969;SDS011;43777;42.656;23.264;2022-07-29T09:13:25;8.65;;;6.10;;
57969;SDS011;43777;42.656;23.264;2022-07-29T09:15:52;8.02;;;6.63;;
57969;SDS011;43777;42.656;23.264;2022-07-29T09:18:37;7.20;;;6.50;;
57969;SDS011;43777;42.656;23.264;2022-07-29T09:21:04;8.32;;;6.68;;
57969;SDS011;43777;42.656;23.264;2022-07-29T09:23:59;7.57;;;6.20;;
57969;SDS011;43777;42.656;23.264;2022-07-29T09:26:29;11.73;;;6.95;;
57969;SDS011;43777;42.656;23.264;2022-07-29T09:28:56;7.72;;;6.72;;
57969;SDS011;43777;42.656;23.264;2022-07-29T09:31:28;7.68;;;6.80;;
57969;SDS011;43777;42.656;23.264;2022-07-29T09:33:58;8.00;;;7.25;;
57969;SDS011;43777;42.656;23.264;2022-07-29T09:36:25;7.68;;;6.90;;
57969;SDS011;43777;42.656;23.264;2022-07-29T09:38:58;8.10;;;7.32;;
57969;SDS011;43777;42.656;23.264;2022-07-29T09:41:25;8.80;;;6.72;;
57969;SDS011;43777;42.656;23.264;2022-07-29T09:46:21;7.65;;;7.03;;
57969;SDS011;43777;42.656;23.264;2022-07-29T09:49:09;7.63;;;6.78;;
57969;SDS011;43777;42.656;23.264;2022-07-29T09:51:34;7.28;;;6.57;;
57969;SDS011;43777;42.656;23.264;2022-07-29T09:54:00;8.40;;;6.90;;
57969;SDS011;43777;42.656;23.264;2022-07-29T09:56:38;8.10;;;7.25;;
57969;SDS011;43777;42.656;23.264;2022-07-29T09:59:05;9.98;;;6.78;;
57969;SDS011;43777;42.656;23.264;2022-07-29T10:01:31;8.25;;;7.40;;
57969;SDS011;43777;42.656;23.264;2022-07-29T10:03:57;8.32;;;7.50;;
57969;SDS011;43777;42.656;23.264;2022-07-29T10:06:23;8.40;;;7.60;;
57969;SDS011;43777;42.656;23.264;2022-07-29T10:08:49;7.45;;;6.75;;
57969;SDS011;43777;42.656;23.264;2022-07-29T10:11:16;9.32;;;7.57;;
57969;SDS011;43777;42.656;23.264;2022-07-29T10:13:43;7.60;;;6.90;;
57969;SDS011;43777;42.656;23.264;2022-07-29T10:16:10;8.63;;;7.75;;
57969;SDS011;43777;42.656;23.264;2022-07-29T10:18:39;11.10;;;7.05;;
57969;SDS011;43777;42.656;23.264;2022-07-29T10:21:06;7.55;;;6.85;;
57969;SDS011;43777;42.656;23.264;2022-07-29T10:23:32;8.30;;;7.60;;
57969;SDS011;43777;42.656;23.264;2022-07-29T10:25:59;8.65;;;7.78;;
57969;SDS011;43777;42.656;23.264;2022-07-29T10:28:25;8.27;;;7.57;;
57969;SDS011;43777;42.656;23.264;2022-07-29T10:30:52;8.45;;;7.60;;
57969;SDS011;43777;42.656;23.264;2022-07-29T10:44:05;10.77;;;7.60;;
57969;SDS011;43777;42.656;23.264;2022-07-29T10:46:36;8.50;;;7.65;;
57969;SDS011;43777;42.656;23.264;2022-07-29T10:49:13;11.43;;;7.75;;
57969;SDS011;43777;42.656;23.264;2022-07-29T10:51:53;9.70;;;8.15;;
57969;SDS011;43777;42.656;23.264;2022-07-29T10:57:12;11.45;;;8.55;;
57969;SDS011;43777;42.656;23.264;2022-07-29T10:59:39;11.18;;;8.38;;
57969;SDS011;43777;42.656;23.264;2022-07-29T11:07:15;10.63;;;7.68;;
57969;SDS011;43777;42.656;23.264;2022-07-29T11:09:42;8.43;;;7.63;;
57969;SDS011;43777;42.656;23.264;2022-07-29T11:14:55;8.63;;;7.82;;
57969;SDS011;43777;42.656;23.264;2022-07-29T11:17:22;8.35;;;7.65;;
57969;SDS011;43777;42.656;23.264;2022-07-29T11:19:48;8.20;;;7.60;;
57969;SDS011;43777;42.656;23.264;2022-07-29T11:22:33;10.88;;;7.40;;
57969;SDS011;43777;42.656;23.264;2022-07-29T11:27:40;8.48;;;7.40;;
57969;SDS011;43777;42.656;23.264;2022-07-29T11:30:07;8.45;;;7.70;;
57969;SDS011;43777;42.656;23.264;2022-07-29T11:32:38;8.23;;;7.50;;
57969;SDS011;43777;42.656;23.264;2022-07-29T11:37:36;9.82;;;8.40;;
57969;SDS011;43777;42.656;23.264;2022-07-29T11:47:37;8.60;;;7.03;;
57969;SDS011;43777;42.656;23.264;2022-07-29T11:50:05;8.80;;;7.82;;
57969;SDS011;43777;42.656;23.264;2022-07-29T11:52:33;10.13;;;7.72;;
57969;SDS011;43777;42.656;23.264;2022-07-29T11:55:02;11.30;;;7.75;;
57969;SDS011;43777;42.656;23.264;2022-07-29T11:57:28;8.52;;;7.43;;
57969;SDS011;43777;42.656;23.264;2022-07-29T11:59:55;8.38;;;7.43;;
57969;SDS011;43777;42.656;23.264;2022-07-29T12:02:23;9.50;;;7.22;;
57969;SDS011;43777;42.656;23.264;2022-07-29T12:04:53;8.90;;;8.00;;
57969;SDS011;43777;42.656;23.264;2022-07-29T12:07:29;8.55;;;7.80;;
57969;SDS011;43777;42.656;23.264;2022-07-29T12:09:55;10.02;;;7.28;;
57969;SDS011;43777;42.656;23.264;2022-07-29T12:12:22;10.88;;;7.60;;
57969;SDS011;43777;42.656;23.264;2022-07-29T12:14:48;12.32;;;7.93;;
57969;SDS011;43777;42.656;23.264;2022-07-29T12:19:53;11.05;;;7.88;;
57969;SDS011;43777;42.656;23.264;2022-07-29T12:22:32;8.52;;;7.35;;
57969;SDS011;43777;42.656;23.264;2022-07-29T12:25:03;8.90;;;8.02;;
57969;SDS011;43777;42.656;23.264;2022-07-29T12:27:29;9.00;;;8.15;;
57969;SDS011;43777;42.656;23.264;2022-07-29T12:30:00;8.77;;;8.07;;
57969;SDS011;43777;42.656;23.264;2022-07-29T12:35:01;8.48;;;7.63;;
57969;SDS011;43777;42.656;23.264;2022-07-29T12:37:27;8.00;;;7.30;;
57969;SDS011;43777;42.656;23.264;2022-07-29T12:39:54;8.35;;;7.75;;
57969;SDS011;43777;42.656;23.264;2022-07-29T12:42:20;8.43;;;7.72;;
57969;SDS011;43777;42.656;23.264;2022-07-29T12:44:49;8.45;;;7.75;;
57969;SDS011;43777;42.656;23.264;2022-07-29T12:47:16;8.63;;;7.82;;
57969;SDS011;43777;42.656;23.264;2022-07-29T12:49:43;8.70;;;7.90;;
57969;SDS011;43777;42.656;23.264;2022-07-29T12:52:29;8.82;;;7.93;;
57969;SDS011;43777;42.656;23.264;2022-07-29T12:54:55;8.05;;;7.28;;
57969;SDS011;43777;42.656;23.264;2022-07-29T12:57:21;10.70;;;7.72;;
57969;SDS011;43777;42.656;23.264;2022-07-29T13:02:44;7.45;;;6.85;;
57969;SDS011;43777;42.656;23.264;2022-07-29T13:05:22;8.48;;;7.68;;
57969;SDS011;43777;42.656;23.264;2022-07-29T13:07:49;7.72;;;7.13;;
57969;SDS011;43777;42.656;23.264;2022-07-29T13:10:16;8.63;;;7.82;;
57969;SDS011;43777;42.656;23.264;2022-07-29T13:15:27;8.35;;;7.53;;
57969;SDS011;43777;42.656;23.264;2022-07-29T13:17:53;8.25;;;7.55;;
57969;SDS011;43777;42.656;23.264;2022-07-29T13:20:23;7.88;;;7.18;;
57969;SDS011;43777;42.656;23.264;2022-07-29T13:22:51;8.57;;;7.78;;
57969;SDS011;43777;42.656;23.264;2022-07-29T13:25:25;8.70;;;8.00;;
57969;SDS011;43777;42.656;23.264;2022-07-29T13:27:51;10.18;;;7.75;;
57969;SDS011;43777;42.656;23.264;2022-07-29T13:30:19;8.93;;;8.13;;
57969;SDS011;43777;42.656;23.264;2022-07-29T13:32:45;8.52;;;7.72;;
57969;SDS011;43777;42.656;23.264;2022-07-29T13:35:12;8.40;;;7.32;;
57969;SDS011;43777;42.656;23.264;2022-07-29T13:37:39;8.32;;;7.57;;
57969;SDS011;43777;42.656;23.264;2022-07-29T13:40:06;8.57;;;7.88;;
57969;SDS011;43777;42.656;23.264;2022-07-29T13:42:32;8.18;;;7.45;;
57969;SDS011;43777;42.656;23.264;2022-07-29T13:44:59;8.02;;;7.35;;
57969;SDS011;43777;42.656;23.264;2022-07-29T13:47:25;8.60;;;7.53;;
57969;SDS011;43777;42.656;23.264;2022-07-29T13:49:52;8.40;;;7.70;;
57969;SDS011;43777;42.656;23.264;2022-07-29T13:52:18;8.13;;;7.32;;
57969;SDS011;43777;42.656;23.264;2022-07-29T13:54:45;8.85;;;7.30;;
57969;SDS011;43777;42.656;23.264;2022-07-29T13:57:11;7.88;;;7.20;;
57969;SDS011;43777;42.656;23.264;2022-07-29T13:59:38;8.75;;;7.78;;
57969;SDS011;43777;42.656;23.264;2022-07-29T14:02:04;8.45;;;7.57;;
57969;SDS011;43777;42.656;23.264;2022-07-29T14:04:31;8.30;;;7.63;;
57969;SDS011;43777;42.656;23.264;2022-07-29T14:06:57;8.32;;;7.53;;
57969;SDS011;43777;42.656;23.264;2022-07-29T14:09:23;8.18;;;7.47;;
57969;SDS011;43777;42.656;23.264;2022-07-29T14:11:49;8.00;;;7.30;;
57969;SDS011;43777;42.656;23.264;2022-07-29T14:14:16;8.77;;;8.07;;
57969;SDS011;43777;42.656;23.264;2022-07-29T14:16:42;8.60;;;7.60;;
57969;SDS011;43777;42.656;23.264;2022-07-29T14:19:08;8.77;;;7.80;;
57969;SDS011;43777;42.656;23.264;2022-07-29T14:21:36;8.70;;;7.78;;
57969;SDS011;43777;42.656;23.264;2022-07-29T14:24:02;8.25;;;7.63;;
57969;SDS011;43777;42.656;23.264;2022-07-29T14:26:28;9.73;;;7.90;;
57969;SDS011;43777;42.656;23.264;2022-07-29T14:28:54;9.02;;;8.23;;
57969;SDS011;43777;42.656;23.264;2022-07-29T14:31:20;8.23;;;7.53;;
57969;SDS011;43777;42.656;23.264;2022-07-29T14:33:47;8.82;;;8.13;;
57969;SDS011;43777;42.656;23.264;2022-07-29T14:36:13;10.80;;;8.13;;
57969;SDS011;43777;42.656;23.264;2022-07-29T14:38:39;9.70;;;8.23;;
57969;SDS011;43777;42.656;23.264;2022-07-29T14:41:06;8.73;;;7.90;;
57969;SDS011;43777;42.656;23.264;2022-07-29T14:43:32;8.88;;;8.05;;
57969;SDS011;43777;42.656;23.264;2022-07-29T14:45:59;8.50;;;7.78;;
57969;SDS011;43777;42.656;23.264;2022-07-29T14:48:25;9.13;;;7.95;;
57969;SDS011;43777;42.656;23.264;2022-07-29T14:50:51;9.10;;;8.40;;
57969;SDS011;43777;42.656;23.264;2022-07-29T14:53:18;8.38;;;7.70;;
57969;SDS011;43777;42.656;23.264;2022-07-29T14:55:44;9.43;;;8.45;;
57969;SDS011;43777;42.656;23.264;2022-07-29T14:58:10;8.63;;;7.82;;
57969;SDS011;43777;42.656;23.264;2022-07-29T15:00:36;9.07;;;8.38;;
57969;SDS011;43777;42.656;23.264;2022-07-29T15:03:03;9.38;;;8.48;;
57969;SDS011;43777;42.656;23.264;2022-07-29T15:05:29;9.07;;;8.27;;
57969;SDS011;43777;42.656;23.264;2022-07-29T15:07:56;11.60;;;8.50;;
57969;SDS011;43777;42.656;23.264;2022-07-29T15:10:22;9.38;;;8.48;;
57969;SDS011;43777;42.656;23.264;2022-07-29T15:12:48;11.27;;;8.77;;
57969;SDS011;43777;42.656;23.264;2022-07-29T15:15:14;10.05;;;9.20;;
57969;SDS011;43777;42.656;23.264;2022-07-29T15:17:40;11.45;;;8.65;;
57969;SDS011;43777;42.656;23.264;2022-07-29T15:20:07;9.00;;;8.30;;
57969;SDS011;43777;42.656;23.264;2022-07-29T15:22:33;9.27;;;8.35;;
57969;SDS011;43777;42.656;23.264;2022-07-29T15:24:59;10.23;;;8.80;;
57969;SDS011;43777;42.656;23.264;2022-07-29T15:27:25;9.07;;;8.27;;
57969;SDS011;43777;42.656;23.264;2022-07-29T15:29:51;9.10;;;8.30;;
57969;SDS011;43777;42.656;23.264;2022-07-29T15:32:17;9.90;;;8.90;;